Hardwood, Louisiana
Current Conditions -  °F | °C
As of 4:55 PM on Tuesday 27 Jan 2015 (Local Time) from KHZR Reporting Station
Clear Clear  
Wind Chill: 69°   Ceiling: Unl
Heat Index: 69°   Visibility: 10mi
Dew Point: 36°   Wind: 8mph
Humidity: 29%   Direction: 310°NW
Pressure: 30.11"   Gusts: NA
Location:  30.8804°N, 91.4243°W
Report Text: KHZR 272255Z AUTO 31007KT 10SM CLR 21/02 A3011 RMK AO2 T02060020
Loading
Personal Weather Stations






























Interactive Weather Map New forecast layout! Learn more

10-Day Weather Forecast

Advertisements
Track Severe Weather on mobile